createdAt,value
2019-04-10T00:00:59.293Z,7.76
2019-04-10T00:03:35.447Z,7.60
2019-04-10T00:06:03.191Z,7.66
2019-04-10T00:08:34.503Z,7.64
2019-04-10T00:11:10.186Z,7.68
2019-04-10T00:13:42.890Z,7.68
2019-04-10T00:16:15.725Z,7.63
2019-04-10T00:18:48.466Z,7.51
2019-04-10T00:21:18.913Z,7.31
2019-04-10T00:23:51.315Z,7.38
2019-04-10T00:26:21.722Z,7.28
2019-04-10T00:28:53.875Z,7.06
2019-04-10T00:31:24.402Z,7.06
2019-04-10T00:33:56.927Z,7.07
2019-04-10T00:36:27.359Z,6.99
2019-04-10T00:39:00.213Z,6.94
2019-04-10T00:41:33.143Z,6.94
2019-04-10T00:44:04.013Z,6.90
2019-04-10T00:46:35.179Z,6.90
2019-04-10T00:49:09.290Z,6.76
2019-04-10T00:51:44.215Z,6.66
2019-04-10T00:57:24.022Z,6.72
2019-04-10T00:59:54.685Z,6.70
2019-04-10T01:02:29.001Z,6.58
2019-04-10T01:05:00.497Z,6.59
2019-04-10T01:07:37.959Z,6.61
2019-04-10T01:10:12.211Z,6.53
2019-04-10T01:12:43.711Z,6.46
2019-04-10T01:15:14.382Z,6.35
2019-04-10T01:17:44.998Z,6.26
2019-04-10T01:20:17.589Z,6.26
2019-04-10T01:22:48.203Z,6.27
2019-04-10T01:25:18.695Z,6.27
2019-04-10T01:27:52.200Z,6.18
2019-04-10T01:30:22.700Z,6.18
2019-04-10T01:32:54.489Z,6.08
2019-04-10T01:35:26.625Z,6.11
2019-04-10T01:38:00.809Z,6.07
2019-04-10T01:40:29.340Z,6.07
2019-04-10T01:43:08.174Z,5.94
2019-04-10T01:45:32.233Z,5.96
2019-04-10T01:48:05.789Z,5.99
2019-04-10T01:50:36.799Z,5.94
2019-04-10T01:53:07.744Z,5.91
2019-04-10T01:55:38.826Z,5.94
2019-04-10T01:58:15.339Z,6.02
2019-04-10T02:00:50.822Z,5.92
2019-04-10T02:03:22.450Z,5.88
2019-04-10T02:05:52.853Z,5.89
2019-04-10T02:08:25.669Z,5.90
2019-04-10T02:10:56.567Z,5.91
2019-04-10T02:13:27.649Z,5.87
2019-04-10T02:15:58.591Z,5.87
2019-04-10T02:18:30.467Z,5.85
2019-04-10T02:21:01.203Z,5.75
2019-04-10T02:23:31.887Z,5.62
2019-04-10T02:26:03.235Z,5.55
2019-04-10T02:28:33.756Z,5.63
2019-04-10T02:31:04.823Z,5.60
2019-04-10T02:33:36.909Z,5.63
2019-04-10T02:36:13.010Z,5.58
2019-04-10T02:38:59.651Z,5.57
2019-04-10T02:41:17.262Z,5.55
2019-04-10T02:43:48.060Z,5.48
2019-04-10T02:46:19.688Z,5.43
2019-04-10T02:48:50.185Z,5.33
2019-04-10T02:51:23.645Z,5.33
2019-04-10T02:53:56.106Z,5.31
2019-04-10T02:56:28.441Z,5.26
2019-04-10T02:59:02.823Z,5.26
2019-04-10T03:01:33.644Z,5.21
2019-04-10T03:04:05.381Z,5.14
2019-04-10T03:06:51.772Z,5.07
2019-04-10T03:09:39.921Z,5.06
2019-04-10T03:11:55.109Z,5.02
2019-04-10T03:14:26.409Z,4.93
2019-04-10T03:16:56.924Z,4.92
2019-04-10T03:19:27.974Z,4.90
2019-04-10T03:22:01.850Z,4.80
2019-04-10T03:24:31.583Z,4.77
2019-04-10T03:27:01.921Z,4.71
2019-04-10T03:29:33.396Z,4.79
2019-04-10T03:32:23.691Z,4.82
2019-04-10T03:34:57.235Z,4.79
2019-04-10T03:37:28.534Z,4.69
2019-04-10T03:39:59.356Z,4.67
2019-04-10T03:42:30.738Z,4.65
2019-04-10T03:45:01.167Z,4.60
2019-04-10T03:47:31.739Z,4.52
2019-04-10T03:50:02.673Z,4.44
2019-04-10T03:52:33.568Z,4.46
2019-04-10T03:55:04.912Z,4.37
2019-04-10T03:57:36.404Z,4.35
2019-04-10T04:00:07.006Z,4.25
2019-04-10T04:02:38.293Z,4.27
2019-04-10T04:05:12.705Z,4.23
2019-04-10T04:07:43.147Z,4.22
2019-04-10T04:10:16.231Z,3.99
2019-04-10T04:12:46.925Z,3.99
2019-04-10T04:15:17.839Z,3.93
2019-04-10T04:17:48.548Z,3.85
2019-04-10T04:20:21.462Z,3.81
2019-04-10T04:22:52.843Z,3.80
2019-04-10T04:25:26.023Z,3.78
2019-04-10T04:27:56.766Z,3.75
2019-04-10T04:30:29.749Z,3.86
2019-04-10T04:33:00.080Z,3.82
2019-04-10T04:35:31.557Z,3.90
2019-04-10T04:38:02.584Z,3.94
2019-04-10T04:40:35.802Z,3.87
2019-04-10T04:43:06.116Z,3.81
2019-04-10T04:45:37.756Z,3.72
2019-04-10T04:48:08.051Z,3.70
2019-04-10T04:50:39.830Z,3.73
2019-04-10T04:53:10.767Z,3.74
2019-04-10T04:55:41.175Z,3.69
2019-04-10T04:58:11.802Z,3.79
2019-04-10T05:00:42.270Z,3.72
2019-04-10T05:03:12.675Z,3.63
2019-04-10T05:05:43.394Z,3.57
2019-04-10T05:08:13.947Z,3.52
2019-04-10T05:10:45.272Z,3.57
2019-04-10T05:13:15.937Z,3.62
2019-04-10T05:15:46.396Z,3.69
2019-04-10T05:18:16.994Z,3.72
2019-04-10T05:20:50.450Z,3.74
2019-04-10T05:23:20.232Z,3.75
2019-04-10T05:25:51.908Z,3.80
2019-04-10T05:28:24.306Z,3.80
2019-04-10T05:30:54.747Z,3.86
2019-04-10T05:33:27.316Z,3.95
2019-04-10T05:35:57.764Z,4.01
2019-04-10T05:38:29.452Z,4.02
2019-04-10T05:40:59.760Z,4.36
2019-04-10T05:43:32.733Z,4.54
2019-04-10T05:46:03.032Z,4.67
2019-04-10T05:48:35.627Z,4.63
2019-04-10T05:51:07.916Z,4.50
2019-04-10T05:53:38.849Z,4.98
2019-04-10T05:56:09.880Z,4.98
2019-04-10T05:58:40.857Z,5.18
2019-04-10T06:01:11.706Z,5.06
2019-04-10T06:03:42.829Z,5.07
2019-04-10T06:06:14.772Z,5.35
2019-04-10T06:08:45.063Z,5.18
2019-04-10T06:11:17.029Z,5.25
2019-04-10T06:13:48.563Z,5.40
2019-04-10T06:16:19.497Z,5.41
2019-04-10T06:18:49.927Z,5.41
2019-04-10T06:21:21.064Z,5.34
2019-04-10T06:23:51.848Z,5.47
2019-04-10T06:26:22.129Z,5.49
2019-04-10T06:28:54.721Z,5.28
2019-04-10T06:31:25.175Z,5.60
2019-04-10T06:33:56.458Z,6.21
2019-04-10T06:36:29.172Z,7.29
2019-04-10T06:39:00.393Z,8.04
2019-04-10T06:41:32.705Z,7.30
2019-04-10T06:44:03.604Z,7.23
2019-04-10T06:46:35.459Z,7.01
2019-04-10T06:51:43.818Z,9.00
2019-04-10T06:54:14.426Z,9.16
2019-04-10T06:56:54.541Z,8.82
2019-04-10T06:59:23.370Z,7.95
2019-04-10T07:01:56.694Z,8.32
2019-04-10T07:04:43.161Z,8.45
2019-04-10T07:07:07.780Z,8.43
2019-04-10T07:09:35.512Z,8.64
2019-04-10T07:12:08.011Z,8.30
2019-04-10T07:14:43.873Z,8.49
2019-04-10T07:17:13.861Z,10.03
2019-04-10T07:19:44.330Z,10.39
2019-04-10T07:22:16.206Z,11.94
2019-04-10T07:24:48.240Z,13.81
2019-04-10T07:27:19.490Z,15.60
2019-04-10T07:29:52.311Z,16.70
2019-04-10T07:32:24.235Z,16.58
2019-04-10T07:34:58.251Z,16.58
2019-04-10T07:37:27.215Z,17.04
2019-04-10T07:40:01.686Z,18.16
2019-04-10T07:42:36.548Z,19.15
2019-04-10T07:45:01.909Z,19.16
2019-04-10T07:47:32.526Z,20.82
2019-04-10T07:50:04.798Z,20.30
2019-04-10T07:52:35.306Z,21.58
2019-04-10T07:55:06.763Z,21.85
2019-04-10T07:57:38.407Z,21.97
2019-04-10T08:00:12.514Z,21.81
2019-04-10T08:02:43.354Z,21.64
2019-04-10T08:05:13.860Z,22.09
2019-04-10T08:07:45.284Z,22.73
2019-04-10T08:10:15.948Z,22.46
2019-04-10T08:12:52.133Z,22.16
2019-04-10T08:15:21.002Z,23.30
2019-04-10T08:17:53.938Z,23.72
2019-04-10T08:20:26.034Z,25.88
2019-04-10T08:22:57.398Z,25.54
2019-04-10T08:25:29.061Z,25.39
2019-04-10T08:28:02.800Z,23.03
2019-04-10T08:30:34.215Z,21.27
2019-04-10T08:33:07.785Z,21.29
2019-04-10T08:35:39.799Z,21.29
2019-04-10T08:38:11.180Z,22.97
2019-04-10T08:40:42.103Z,23.49
2019-04-10T08:43:13.775Z,22.21
2019-04-10T08:45:48.473Z,22.42
2019-04-10T08:48:17.869Z,23.79
2019-04-10T08:50:48.226Z,24.38
2019-04-10T08:53:20.120Z,24.09
2019-04-10T08:55:51.017Z,23.25
2019-04-10T08:58:22.870Z,23.58
2019-04-10T09:00:54.518Z,22.86
2019-04-10T09:03:25.111Z,22.69
2019-04-10T09:05:55.456Z,22.79
2019-04-10T09:08:26.669Z,22.29
2019-04-10T09:10:56.990Z,25.61
2019-04-10T09:13:28.490Z,24.78
2019-04-10T09:16:00.369Z,24.69
2019-04-10T09:18:32.082Z,25.63
2019-04-10T09:21:02.803Z,26.44
2019-04-10T09:23:42.897Z,24.66
2019-04-10T09:26:05.926Z,25.53
2019-04-10T09:28:38.326Z,25.58
2019-04-10T09:31:09.375Z,25.69
2019-04-10T09:33:41.169Z,24.54
2019-04-10T09:36:13.120Z,23.97
2019-04-10T09:38:44.155Z,23.51
2019-04-10T09:41:15.968Z,24.59
2019-04-10T09:43:47.624Z,23.92
2019-04-10T09:46:18.386Z,24.38
2019-04-10T09:48:49.882Z,25.17
2019-04-10T09:51:21.473Z,24.19
2019-04-10T09:53:55.307Z,23.11
2019-04-10T09:56:26.201Z,21.11
2019-04-10T09:58:56.904Z,22.46
2019-04-10T10:01:28.727Z,24.81
2019-04-10T10:03:59.539Z,24.08
2019-04-10T10:06:34.878Z,23.30
2019-04-10T10:09:06.284Z,23.30
2019-04-10T10:11:38.485Z,20.67
2019-04-10T10:14:10.334Z,21.18
2019-04-10T10:16:42.142Z,21.05
2019-04-10T10:19:14.467Z,20.62
2019-04-10T10:21:45.300Z,20.69
2019-04-10T10:24:16.305Z,20.69
2019-04-10T10:26:49.431Z,21.86
2019-04-10T10:29:20.317Z,19.92
2019-04-10T10:31:53.688Z,20.63
2019-04-10T10:34:26.834Z,22.31
2019-04-10T10:36:58.442Z,23.03
2019-04-10T10:39:29.049Z,19.53
2019-04-10T10:44:38.281Z,20.66
2019-04-10T10:47:10.084Z,20.20
2019-04-10T10:49:40.703Z,19.53
2019-04-10T10:52:11.159Z,19.98
2019-04-10T10:54:41.791Z,21.18
2019-04-10T10:57:15.221Z,20.82
2019-04-10T10:59:46.103Z,20.82
2019-04-10T11:02:17.175Z,21.26
2019-04-10T11:04:47.966Z,20.93
2019-04-10T11:07:18.759Z,21.48
2019-04-10T11:09:50.380Z,21.35
2019-04-10T11:12:21.968Z,20.96
2019-04-10T11:14:53.682Z,20.90
2019-04-10T11:17:25.500Z,22.07
2019-04-10T11:19:57.536Z,19.59
2019-04-10T11:22:29.005Z,17.69
2019-04-10T11:25:00.207Z,15.08
2019-04-10T11:27:31.804Z,13.65
2019-04-10T11:30:05.356Z,13.00
2019-04-10T11:32:38.026Z,12.91
2019-04-10T11:35:08.969Z,12.74
2019-04-10T11:37:44.575Z,12.66
2019-04-10T11:40:12.375Z,12.58
2019-04-10T11:42:44.725Z,12.73
2019-04-10T11:45:19.027Z,12.82
2019-04-10T11:47:51.254Z,12.73
2019-04-10T11:50:24.705Z,12.71
2019-04-10T11:52:56.723Z,12.25
2019-04-10T11:55:27.855Z,12.04
2019-04-10T11:58:00.027Z,12.04
2019-04-10T12:05:48.516Z,12.07
2019-04-10T12:08:45.235Z,12.14
2019-04-10T12:11:10.760Z,12.09
2019-04-10T12:13:26.871Z,12.13
2019-04-10T12:15:59.136Z,12.26
2019-04-10T12:18:31.090Z,12.40
2019-04-10T12:21:01.926Z,12.49
2019-04-10T12:23:33.171Z,12.52
2019-04-10T12:26:03.791Z,12.49
2019-04-10T12:28:34.102Z,12.72
2019-04-10T12:31:07.924Z,12.71
2019-04-10T12:33:37.979Z,12.39
2019-04-10T12:36:10.724Z,12.45
2019-04-10T12:38:41.572Z,12.75
2019-04-10T12:41:12.067Z,12.81
2019-04-10T12:43:43.169Z,12.96
2019-04-10T12:46:14.868Z,12.69
2019-04-10T12:48:45.271Z,12.50
2019-04-10T12:51:15.995Z,12.40
2019-04-10T12:53:46.347Z,12.48
2019-04-10T12:56:17.818Z,12.38
2019-04-10T12:58:48.537Z,12.52
2019-04-10T13:01:18.861Z,12.77
2019-04-10T13:03:49.534Z,12.89
2019-04-10T13:06:22.073Z,12.62
2019-04-10T13:09:00.734Z,12.81
2019-04-10T13:11:26.912Z,12.77
2019-04-10T13:14:00.060Z,12.71
2019-04-10T13:16:34.164Z,12.64
2019-04-10T13:19:06.998Z,12.60
2019-04-10T13:21:37.079Z,12.47
2019-04-10T13:24:09.774Z,12.35
2019-04-10T13:26:40.359Z,12.19
2019-04-10T13:29:11.942Z,12.29
2019-04-10T13:31:42.978Z,12.27
2019-04-10T13:34:13.462Z,12.40
2019-04-10T13:36:46.072Z,12.54
2019-04-10T13:39:20.434Z,12.63
2019-04-10T13:41:52.542Z,12.50
2019-04-10T13:44:23.068Z,12.48
2019-04-10T13:46:53.943Z,12.37
2019-04-10T13:49:24.744Z,12.34
2019-04-10T13:51:56.026Z,12.50
2019-04-10T13:54:26.708Z,12.26
2019-04-10T13:56:57.908Z,12.36
2019-04-10T13:59:28.980Z,12.36
2019-04-10T14:02:01.388Z,12.28
2019-04-10T14:04:33.299Z,12.37
2019-04-10T14:07:05.802Z,12.53
2019-04-10T14:09:43.962Z,12.46
2019-04-10T14:12:10.107Z,12.48
2019-04-10T14:14:42.499Z,12.64
2019-04-10T14:17:15.793Z,12.26
2019-04-10T14:19:46.523Z,12.16
2019-04-10T14:22:19.732Z,12.30
2019-04-10T14:24:51.176Z,12.34
2019-04-10T14:27:27.956Z,12.25
2019-04-10T14:29:58.725Z,12.27
2019-04-10T14:32:37.691Z,12.16
2019-04-10T14:35:09.897Z,12.19
2019-04-10T14:40:24.152Z,12.48
2019-04-10T14:42:55.678Z,12.44
2019-04-10T14:45:26.255Z,12.31
2019-04-10T14:47:58.179Z,12.18
2019-04-10T14:50:29.491Z,12.20
2019-04-10T14:52:59.884Z,12.29
2019-04-10T14:55:30.503Z,12.42
2019-04-10T14:58:01.340Z,12.37
2019-04-10T15:00:39.282Z,12.28
2019-04-10T15:03:09.732Z,12.44
2019-04-10T15:05:48.694Z,12.63
2019-04-10T15:18:49.048Z,12.06
2019-04-10T15:21:20.819Z,12.17
2019-04-10T15:23:51.498Z,12.23
2019-04-10T15:26:24.039Z,12.04
2019-04-10T15:28:58.286Z,12.04
2019-04-10T15:31:31.235Z,12.13
2019-04-10T15:34:01.689Z,12.15
2019-04-10T15:36:32.237Z,12.13
2019-04-10T15:39:05.124Z,12.17
2019-04-10T15:41:36.421Z,12.21
2019-04-10T15:44:07.894Z,12.13
2019-04-10T15:46:39.185Z,12.11
2019-04-10T15:49:11.035Z,12.09
2019-04-10T15:51:41.775Z,12.04
2019-04-10T15:54:12.274Z,11.88
2019-04-10T15:56:42.946Z,11.75
2019-04-10T15:59:14.238Z,11.75
2019-04-10T16:01:47.611Z,11.78
2019-04-10T16:04:19.045Z,11.89
2019-04-10T16:06:51.645Z,11.89
2019-04-10T16:09:23.241Z,11.71
2019-04-10T16:12:00.482Z,11.74
2019-04-10T16:14:32.070Z,11.81
2019-04-10T16:17:25.774Z,11.74
2019-04-10T16:20:15.527Z,11.46
2019-04-10T16:22:53.082Z,11.50
2019-04-10T16:25:32.564Z,11.48
2019-04-10T16:28:04.667Z,11.47
2019-04-10T16:30:37.046Z,11.43
2019-04-10T16:33:07.564Z,11.36
2019-04-10T16:35:38.375Z,11.29
2019-04-10T16:38:09.556Z,11.21
2019-04-10T16:40:41.039Z,11.21
2019-04-10T16:43:12.132Z,11.29
2019-04-10T16:45:42.857Z,11.29
2019-04-10T16:48:13.263Z,11.22
2019-04-10T16:50:43.754Z,11.13
2019-04-10T16:53:16.018Z,11.13
2019-04-10T16:55:47.113Z,11.07
2019-04-10T16:58:20.067Z,11.05
2019-04-10T17:00:50.718Z,10.96
2019-04-10T17:03:21.811Z,10.87
2019-04-10T17:05:53.452Z,10.81
2019-04-10T17:08:25.264Z,10.75
2019-04-10T17:10:56.768Z,10.69
2019-04-10T17:13:27.108Z,10.66
2019-04-10T17:15:57.773Z,10.67
2019-04-10T17:18:28.215Z,10.61
2019-04-10T17:20:58.624Z,10.56
2019-04-10T17:23:29.018Z,10.50
2019-04-10T17:26:00.402Z,10.42
2019-04-10T17:28:30.936Z,10.34
2019-04-10T17:33:41.978Z,10.15
2019-04-10T17:36:12.551Z,10.14
2019-04-10T17:38:42.972Z,10.08
2019-04-10T17:41:13.631Z,10.02
2019-04-10T17:43:45.431Z,9.94
2019-04-10T17:46:17.410Z,9.87
2019-04-10T17:48:47.849Z,9.79
2019-04-10T17:51:19.670Z,9.74
2019-04-10T17:53:50.472Z,9.65
2019-04-10T17:56:22.045Z,9.60
2019-04-10T17:58:53.972Z,9.58
2019-04-10T18:01:25.062Z,9.45
2019-04-10T18:03:59.026Z,9.31
2019-04-10T18:06:28.436Z,9.29
2019-04-10T18:09:11.664Z,9.27
2019-04-10T18:11:43.533Z,9.18
2019-04-10T18:14:15.273Z,9.05
2019-04-10T18:16:46.370Z,9.06
2019-04-10T18:19:17.157Z,9.02
2019-04-10T18:21:47.906Z,9.02
2019-04-10T18:24:20.111Z,8.99
2019-04-10T18:26:53.426Z,8.88
2019-04-10T18:29:23.354Z,8.87
2019-04-10T18:31:57.957Z,8.74
2019-04-10T18:34:29.246Z,8.70
2019-04-10T18:37:02.254Z,8.77
2019-04-10T18:39:40.895Z,8.59
2019-04-10T18:42:11.911Z,8.59
2019-04-10T18:44:42.288Z,8.50
2019-04-10T18:47:13.121Z,8.39
2019-04-10T18:49:43.539Z,8.34
2019-04-10T18:52:15.001Z,8.23
2019-04-10T18:54:45.472Z,8.23
2019-04-10T18:57:15.874Z,8.20
2019-04-10T18:59:58.805Z,8.19
2019-04-10T19:02:47.183Z,8.00
2019-04-10T19:05:31.883Z,7.84
2019-04-10T19:08:07.119Z,7.73
2019-04-10T19:10:38.965Z,7.70
2019-04-10T19:13:09.594Z,7.62
2019-04-10T19:15:41.605Z,7.50
2019-04-10T19:18:13.119Z,7.50
2019-04-10T19:20:43.923Z,7.42
2019-04-10T19:25:54.721Z,7.30
2019-04-10T19:28:30.295Z,7.25
2019-04-10T19:31:12.901Z,7.19
2019-04-10T19:33:37.498Z,7.04
2019-04-10T19:36:08.048Z,7.00
2019-04-10T19:38:38.602Z,6.96
2019-04-10T19:41:23.202Z,6.98
2019-04-10T19:43:42.224Z,6.97
2019-04-10T19:46:12.644Z,6.96
2019-04-10T19:48:43.639Z,6.91
2019-04-10T19:51:15.072Z,6.71
2019-04-10T19:53:46.724Z,6.60
2019-04-10T19:56:20.427Z,6.62
2019-04-10T19:58:50.277Z,6.63
2019-04-10T20:01:21.118Z,6.74
2019-04-10T20:03:52.167Z,6.66
2019-04-10T20:06:24.168Z,6.70
2019-04-10T20:08:55.823Z,6.64
2019-04-10T20:11:35.659Z,6.57
2019-04-10T20:14:00.062Z,6.51
2019-04-10T20:16:31.232Z,6.41
2019-04-10T20:19:01.849Z,6.41
2019-04-10T20:21:34.270Z,6.41
2019-04-10T20:24:04.844Z,6.42
2019-04-10T20:26:36.987Z,6.35
2019-04-10T20:29:08.657Z,6.31
2019-04-10T20:31:39.979Z,6.22
2019-04-10T20:34:11.618Z,6.19
2019-04-10T20:36:42.714Z,6.13
2019-04-10T20:39:14.897Z,6.06
2019-04-10T20:41:52.402Z,6.02
2019-04-10T20:44:20.503Z,5.94
2019-04-10T20:46:53.531Z,5.90
2019-04-10T20:49:23.767Z,5.87
2019-04-10T20:51:55.654Z,5.85
2019-04-10T20:54:26.050Z,5.88
2019-04-10T20:56:59.205Z,5.72
2019-04-10T20:59:30.555Z,5.71
2019-04-10T21:02:02.018Z,5.67
2019-04-10T21:04:32.356Z,5.66
2019-04-10T21:07:04.904Z,5.66
2019-04-10T21:09:36.170Z,5.64
2019-04-10T21:12:12.507Z,5.69
2019-04-10T21:14:38.793Z,5.64
2019-04-10T21:17:12.180Z,5.54
2019-04-10T21:19:43.795Z,5.44
2019-04-10T21:22:15.922Z,5.41
2019-04-10T21:24:46.588Z,5.29
2019-04-10T21:27:18.602Z,5.25
2019-04-10T21:30:07.282Z,5.24
2019-04-10T21:32:56.744Z,5.18
2019-04-10T21:35:31.042Z,5.10
2019-04-10T21:38:02.594Z,5.09
2019-04-10T21:40:34.886Z,5.09
2019-04-10T21:43:06.422Z,5.10
2019-04-10T21:45:39.152Z,5.03
2019-04-10T21:48:10.486Z,4.99
2019-04-10T21:50:53.778Z,4.92
2019-04-10T21:53:24.187Z,4.88
2019-04-10T21:55:55.746Z,4.91
2019-04-10T21:58:26.223Z,4.79
2019-04-10T22:01:07.484Z,4.74
2019-04-10T22:03:38.148Z,4.75
2019-04-10T22:06:28.701Z,4.65
2019-04-10T22:09:22.846Z,4.62
2019-04-10T22:11:55.370Z,4.63
2019-04-10T22:14:26.176Z,4.62
2019-04-10T22:16:56.828Z,4.65
2019-04-10T22:19:28.344Z,4.58
2019-04-10T22:21:58.885Z,4.54
2019-04-10T22:24:31.855Z,4.44
2019-04-10T22:27:05.046Z,4.49
2019-04-10T22:29:35.187Z,4.55
2019-04-10T22:32:06.407Z,4.48
2019-04-10T22:34:38.502Z,4.43
2019-04-10T22:37:09.906Z,4.49
2019-04-10T22:39:41.733Z,4.41
2019-04-10T22:42:12.954Z,4.34
2019-04-10T22:44:45.310Z,4.27
2019-04-10T22:47:15.546Z,4.20
2019-04-10T22:49:47.176Z,4.12
2019-04-10T22:52:19.595Z,3.97
2019-04-10T22:54:51.766Z,3.95
2019-04-10T22:57:23.084Z,3.91
2019-04-10T22:59:55.340Z,3.76
2019-04-10T23:02:25.797Z,3.92
2019-04-10T23:04:56.104Z,3.86
2019-04-10T23:07:26.532Z,3.76
2019-04-10T23:09:57.271Z,3.67
2019-04-10T23:12:27.593Z,3.52
2019-04-10T23:14:59.137Z,3.39
2019-04-10T23:17:29.570Z,3.38
2019-04-10T23:20:00.769Z,3.40
2019-04-10T23:22:31.395Z,3.34
2019-04-10T23:25:02.794Z,3.31
2019-04-10T23:27:33.562Z,3.28
2019-04-10T23:30:06.158Z,3.21
2019-04-10T23:32:37.483Z,3.14
2019-04-10T23:35:10.147Z,3.02
2019-04-10T23:37:40.620Z,2.94
2019-04-10T23:40:13.011Z,2.96
2019-04-10T23:42:44.173Z,2.93
2019-04-10T23:45:15.572Z,2.96
2019-04-10T23:47:46.506Z,3.08
2019-04-10T23:50:17.014Z,2.99
2019-04-10T23:52:54.578Z,3.06
2019-04-10T23:55:26.126Z,3.07
2019-04-10T23:57:57.932Z,3.01
